Time;durP1;ratioP1;P1;durP2;ratioP2;P2;SDS_P1;SDS_P2;PMS_P1;PMS_P2;Temp;Humidity;BMP_temperature;BMP_pressure;BME280_temperature;BME280_humidity;BME280_pressure;Samples;Min_cycle;Max_cycle;Signal;HPM_P1;HPM_P2
2022/07/19 00:02:03;;;;;;;3.25;2.22;;;23.90;45.20;;;;;;5026668;28;20490;-71
2022/07/19 00:04:31;;;;;;;3.53;2.53;;;23.80;46.20;;;;;;5027257;28;20427;-70
2022/07/19 00:06:58;;;;;;;4.53;2.90;;;23.80;46.00;;;;;;5027661;28;20503;-70
2022/07/19 00:09:26;;;;;;;3.43;2.60;;;23.80;46.30;;;;;;5027396;28;20407;-71
2022/07/19 00:11:53;;;;;;;2.90;2.70;;;23.70;46.40;;;;;;5025319;28;20506;-70
2022/07/19 00:14:20;;;;;;;2.80;2.60;;;23.70;46.40;;;;;;5027394;28;21085;-72
2022/07/19 00:16:49;;;;;;;4.50;3.00;;;23.60;47.00;;;;;;5027322;28;20416;-70
2022/07/19 00:19:16;;;;;;;2.90;2.60;;;23.60;46.60;;;;;;5027382;28;20425;-68
2022/07/19 00:21:43;;;;;;;3.80;2.90;;;23.60;47.00;;;;;;5025548;28;20518;-70
2022/07/19 00:24:10;;;;;;;3.60;2.70;;;23.50;47.20;;;;;;5026834;28;20414;-70
2022/07/19 00:26:37;;;;;;;3.10;2.80;;;23.50;47.10;;;;;;5026142;28;20894;-70
2022/07/19 00:29:04;;;;;;;5.07;2.88;;;23.40;47.80;;;;;;5027097;28;20506;-71
2022/07/19 00:31:31;;;;;;;4.70;2.40;;;23.40;47.80;;;;;;5025938;28;20893;-71
2022/07/19 00:33:59;;;;;;;3.50;2.70;;;23.30;47.40;;;;;;5026832;28;20729;-71
2022/07/19 00:36:26;;;;;;;2.83;2.30;;;23.30;47.90;;;;;;5026855;28;20411;-71
2022/07/19 00:38:52;;;;;;;3.08;2.80;;;23.20;48.70;;;;;;5026762;28;20539;-70
2022/07/19 00:41:19;;;;;;;2.43;2.10;;;23.20;48.60;;;;;;5024664;28;20895;-71
2022/07/19 00:43:46;;;;;;;4.00;2.50;;;23.10;48.20;;;;;;5026959;28;20421;-71
2022/07/19 00:46:14;;;;;;;3.00;2.22;;;23.10;48.30;;;;;;5026709;28;20418;-70
2022/07/19 00:48:42;;;;;;;2.92;2.10;;;23.10;48.20;;;;;;5027103;28;20415;-70
2022/07/19 00:51:11;;;;;;;2.92;2.00;;;23.00;49.20;;;;;;5025571;28;20513;-70
2022/07/19 00:53:40;;;;;;;3.55;2.33;;;22.90;48.30;;;;;;5026248;28;20415;-70
2022/07/19 00:56:08;;;;;;;3.17;2.70;;;22.90;48.40;;;;;;5027485;28;20443;-71
2022/07/19 00:58:37;;;;;;;3.47;2.30;;;22.90;49.50;;;;;;5031061;28;20481;-71
2022/07/19 01:01:06;;;;;;;2.60;2.40;;;22.80;49.80;;;;;;5029800;28;20418;-70
2022/07/19 01:03:36;;;;;;;3.67;2.50;;;22.80;50.70;;;;;;5030997;28;20844;-71
2022/07/19 01:06:03;;;;;;;2.80;2.50;;;22.80;50.70;;;;;;5055330;22;20530;-71
2022/07/19 01:08:31;;;;;;;3.75;2.80;;;22.70;50.60;;;;;;5069037;28;20435;-71
2022/07/19 01:10:59;;;;;;;2.90;2.60;;;22.70;50.60;;;;;;5066828;28;20537;-71
2022/07/19 01:13:25;;;;;;;3.08;2.35;;;22.70;51.10;;;;;;5070020;28;20829;-72
2022/07/19 01:15:52;;;;;;;2.63;2.42;;;22.70;51.00;;;;;;5068993;28;20502;-71
2022/07/19 01:18:19;;;;;;;4.70;2.50;;;22.70;50.50;;;;;;5069549;28;20407;-71
2022/07/19 01:20:46;;;;;;;2.35;2.15;;;22.60;50.70;;;;;;5060577;28;20421;-71
2022/07/19 01:23:15;;;;;;;3.13;2.45;;;22.50;50.30;;;;;;5049248;28;20437;-72
2022/07/19 01:25:41;;;;;;;2.67;2.47;;;22.50;51.20;;;;;;5047460;28;20418;-71
2022/07/19 01:28:09;;;;;;;2.90;2.25;;;22.40;51.70;;;;;;5048869;28;20765;-72
2022/07/19 01:30:37;;;;;;;3.22;2.60;;;22.30;51.50;;;;;;5047548;28;20421;-72
2022/07/19 01:33:04;;;;;;;3.80;2.70;;;22.30;51.30;;;;;;5048994;28;20492;-72
2022/07/19 01:35:31;;;;;;;2.78;2.58;;;22.20;52.00;;;;;;5048677;28;20460;-71
2022/07/19 01:37:58;;;;;;;2.83;2.50;;;22.20;51.60;;;;;;5049299;28;20413;-72
2022/07/19 01:40:27;;;;;;;3.55;2.30;;;22.10;52.10;;;;;;5046404;28;20417;-71
2022/07/19 01:42:54;;;;;;;2.60;2.40;;;22.10;52.30;;;;;;5048956;28;21033;-72
2022/07/19 01:45:21;;;;;;;4.75;2.50;;;22.00;52.60;;;;;;5048398;28;20721;-71
2022/07/19 01:47:49;;;;;;;2.60;2.40;;;22.00;53.20;;;;;;5048951;28;20516;-71
2022/07/19 01:50:17;;;;;;;4.47;2.43;;;22.00;52.00;;;;;;5047089;28;20413;-71
2022/07/19 01:52:44;;;;;;;2.80;2.40;;;21.90;53.10;;;;;;5048348;28;20857;-71
2022/07/19 01:55:11;;;;;;;3.40;2.50;;;21.90;53.10;;;;;;5047027;28;20420;-71
2022/07/19 01:57:39;;;;;;;2.20;2.00;;;21.90;51.70;;;;;;5048644;28;20864;-71
2022/07/19 02:00:07;;;;;;;3.58;2.50;;;21.80;52.10;;;;;;5046898;28;20417;-71
2022/07/19 02:02:34;;;;;;;2.53;2.20;;;21.80;50.70;;;;;;5048438;28;20424;-73
2022/07/19 02:05:01;;;;;;;3.72;2.30;;;21.80;50.50;;;;;;5048009;28;20424;-72
2022/07/19 02:07:27;;;;;;;3.75;2.35;;;21.80;50.30;;;;;;5047634;28;20477;-71
2022/07/19 02:09:56;;;;;;;3.60;2.50;;;21.70;49.80;;;;;;5046389;28;20508;-70
2022/07/19 02:12:23;;;;;;;2.67;2.30;;;21.70;49.40;;;;;;5048056;28;20413;-70
2022/07/19 02:14:51;;;;;;;2.40;2.20;;;21.70;48.50;;;;;;5048136;28;20841;-71
2022/07/19 02:17:18;;;;;;;2.40;2.20;;;21.70;48.90;;;;;;5048139;28;20855;-71
2022/07/19 02:19:44;;;;;;;3.33;2.40;;;21.70;49.30;;;;;;5048012;28;20480;-71
2022/07/19 02:22:11;;;;;;;2.72;2.33;;;21.60;49.70;;;;;;5047159;28;20957;-72
2022/07/19 02:24:39;;;;;;;2.35;2.10;;;21.60;48.80;;;;;;5047185;28;20448;-71
2022/07/19 02:27:06;;;;;;;2.70;2.50;;;21.60;49.70;;;;;;5047676;28;20436;-73
2022/07/19 02:29:32;;;;;;;2.55;2.30;;;21.50;49.00;;;;;;5047611;28;20413;-73
2022/07/19 02:32:01;;;;;;;3.03;2.37;;;21.50;49.40;;;;;;5046966;28;20958;-72
2022/07/19 02:34:27;;;;;;;4.07;2.30;;;21.40;49.80;;;;;;5047843;28;20501;-72
2022/07/19 02:36:54;;;;;;;2.50;2.30;;;21.40;49.70;;;;;;5047432;28;20423;-71
2022/07/19 02:39:21;;;;;;;3.20;2.40;;;21.40;49.50;;;;;;5047501;28;20414;-71
2022/07/19 02:41:48;;;;;;;2.55;2.10;;;21.30;49.80;;;;;;5045713;28;20596;-71
2022/07/19 02:44:15;;;;;;;2.65;2.10;;;21.40;49.80;;;;;;5047411;28;20420;-71
2022/07/19 02:46:41;;;;;;;3.20;2.20;;;21.30;50.10;;;;;;5047476;28;20412;-72
2022/07/19 02:49:10;;;;;;;3.45;2.25;;;21.20;50.80;;;;;;5048105;28;20433;-70
2022/07/19 02:51:36;;;;;;;2.40;2.08;;;21.20;50.50;;;;;;5047041;28;20493;-71
2022/07/19 02:54:03;;;;;;;3.17;2.30;;;21.30;51.00;;;;;;5047698;28;20417;-71
2022/07/19 02:56:30;;;;;;;2.50;2.20;;;21.20;51.10;;;;;;5047745;28;20414;-72
2022/07/19 02:58:57;;;;;;;2.50;2.30;;;21.20;51.80;;;;;;5047618;28;20413;-71
2022/07/19 03:01:24;;;;;;;2.30;2.10;;;21.10;51.60;;;;;;5046513;28;20417;-72
2022/07/19 03:03:51;;;;;;;2.42;2.10;;;21.10;51.00;;;;;;5047588;28;20484;-72
2022/07/19 03:06:20;;;;;;;2.83;2.40;;;21.10;50.90;;;;;;5046861;28;20813;-72
2022/07/19 03:08:47;;;;;;;3.47;2.00;;;21.10;50.40;;;;;;5046740;28;20425;-72
2022/07/19 03:11:14;;;;;;;2.57;2.37;;;21.10;50.80;;;;;;5044851;28;20520;-73
2022/07/19 03:13:41;;;;;;;3.90;2.20;;;21.10;49.40;;;;;;5047267;28;20423;-72
2022/07/19 03:16:08;;;;;;;2.40;2.10;;;21.10;49.50;;;;;;5046771;28;20738;-74
2022/07/19 03:18:35;;;;;;;3.40;2.10;;;21.10;49.50;;;;;;5046252;28;20409;-73
2022/07/19 03:21:03;;;;;;;2.83;2.30;;;21.10;49.20;;;;;;5044528;28;20421;-73
2022/07/19 03:23:34;;;;;;;2.60;2.30;;;21.10;49.20;;;;;;5047019;28;20421;-72
2022/07/19 03:26:01;;;;;;;5.13;2.17;;;21.10;49.30;;;;;;5045317;28;20524;-72
2022/07/19 03:28:28;;;;;;;3.20;2.55;;;21.00;49.50;;;;;;5046728;28;20526;-72
2022/07/19 03:30:55;;;;;;;3.70;2.25;;;21.10;49.60;;;;;;5045280;28;20415;-72
2022/07/19 03:33:22;;;;;;;3.58;2.40;;;21.00;49.90;;;;;;5046922;28;20949;-73
2022/07/19 03:35:49;;;;;;;2.40;2.20;;;21.00;50.00;;;;;;5046301;28;20415;-73
2022/07/19 03:38:16;;;;;;;3.03;2.25;;;21.00;50.70;;;;;;5046702;28;20428;-72
2022/07/19 03:40:47;;;;;;;3.70;2.40;;;21.00;50.20;;;;;;5044230;28;20424;-72
2022/07/19 03:43:14;;;;;;;2.72;2.40;;;21.00;50.30;;;;;;5047047;28;20500;-73
2022/07/19 03:45:41;;;;;;;2.88;2.38;;;20.90;50.60;;;;;;5046009;28;20417;-72
2022/07/19 03:48:07;;;;;;;3.55;2.47;;;20.90;50.00;;;;;;5046979;28;20417;-72
2022/07/19 03:50:34;;;;;;;3.63;2.35;;;20.90;50.60;;;;;;5045330;28;20425;-73
2022/07/19 03:53:01;;;;;;;4.63;2.38;;;20.80;51.60;;;;;;5046644;28;20423;-74
2022/07/19 03:55:28;;;;;;;2.90;2.30;;;20.80;51.40;;;;;;5045100;28;20435;-73
2022/07/19 03:57:56;;;;;;;3.10;2.20;;;20.90;52.10;;;;;;5046851;28;20417;-72
2022/07/19 04:00:23;;;;;;;4.03;2.35;;;20.90;51.40;;;;;;5044857;28;20423;-73
2022/07/19 04:02:50;;;;;;;2.88;2.42;;;20.90;51.30;;;;;;5046383;28;20516;-72
2022/07/19 04:05:17;;;;;;;4.05;2.30;;;20.90;51.20;;;;;;5045641;28;20441;-72
2022/07/19 04:07:44;;;;;;;3.60;2.30;;;20.90;50.80;;;;;;5046365;28;20461;-72
2022/07/19 04:10:11;;;;;;;3.20;2.40;;;20.80;50.70;;;;;;5043191;28;20861;-72
2022/07/19 04:12:38;;;;;;;2.50;2.30;;;20.90;50.70;;;;;;5046090;28;20444;-73
2022/07/19 04:15:08;;;;;;;3.20;2.42;;;20.90;51.20;;;;;;5045625;28;20512;-71
2022/07/19 04:17:34;;;;;;;2.80;2.60;;;20.80;51.30;;;;;;5045859;28;20409;-73
2022/07/19 04:20:01;;;;;;;3.22;2.50;;;20.80;50.30;;;;;;5044356;28;20421;-72
2022/07/19 04:22:30;;;;;;;2.60;2.20;;;20.90;50.90;;;;;;5046223;28;20424;-73
2022/07/19 04:24:56;;;;;;;2.53;2.33;;;20.90;50.30;;;;;;5044291;28;20445;-73
2022/07/19 04:27:23;;;;;;;2.50;2.30;;;20.80;50.30;;;;;;5046353;28;20452;-72
2022/07/19 04:29:50;;;;;;;3.20;2.28;;;20.80;50.40;;;;;;5045693;28;20736;-73
2022/07/19 04:32:18;;;;;;;3.88;2.50;;;20.80;50.00;;;;;;5044428;28;20413;-73
2022/07/19 04:34:45;;;;;;;3.35;2.20;;;20.80;49.60;;;;;;5045563;28;20413;-72
2022/07/19 04:37:12;;;;;;;4.20;2.53;;;20.80;49.80;;;;;;5046477;28;20506;-74
2022/07/19 04:39:39;;;;;;;3.80;2.30;;;20.80;49.10;;;;;;5044894;28;20508;-74
2022/07/19 04:42:05;;;;;;;3.97;2.50;;;20.90;49.50;;;;;;5043862;28;20599;-72
2022/07/19 04:44:32;;;;;;;3.33;2.42;;;20.90;49.10;;;;;;5045304;28;20421;-73
2022/07/19 04:46:59;;;;;;;3.60;2.30;;;20.90;49.10;;;;;;5045575;28;20504;-72
2022/07/19 04:49:27;;;;;;;2.90;2.60;;;20.80;49.60;;;;;;5045458;28;20512;-72
2022/07/19 04:51:54;;;;;;;2.75;2.28;;;20.90;50.60;;;;;;5044523;28;20504;-74
2022/07/19 04:54:21;;;;;;;3.17;2.30;;;20.90;49.70;;;;;;5045186;28;20421;-73
2022/07/19 04:56:48;;;;;;;2.53;2.20;;;20.90;49.80;;;;;;5044720;28;20520;-72
2022/07/19 04:59:15;;;;;;;2.33;2.13;;;20.90;50.00;;;;;;5045631;28;20783;-73
2022/07/19 05:01:42;;;;;;;6.82;2.65;;;20.90;49.70;;;;;;5044727;28;21114;-73
2022/07/19 05:04:09;;;;;;;4.72;2.28;;;20.90;49.60;;;;;;5045626;28;20416;-74
2022/07/19 05:06:37;;;;;;;4.18;2.40;;;20.90;49.60;;;;;;5045299;28;20730;-73
2022/07/19 05:09:04;;;;;;;4.57;2.47;;;20.90;50.10;;;;;;5045342;28;20433;-73
2022/07/19 05:11:31;;;;;;;2.55;2.13;;;20.90;50.80;;;;;;5043579;28;20514;-74
2022/07/19 05:13:57;;;;;;;2.80;2.60;;;21.00;50.60;;;;;;5045435;28;20846;-72
2022/07/19 05:16:24;;;;;;;3.60;2.47;;;21.00;49.60;;;;;;5045073;28;20512;-72
2022/07/19 05:18:51;;;;;;;3.00;2.60;;;21.00;50.00;;;;;;5045667;28;20521;-73
2022/07/19 05:21:18;;;;;;;3.40;2.40;;;21.10;49.80;;;;;;5043919;28;20921;-70
2022/07/19 05:23:46;;;;;;;3.83;2.40;;;21.10;49.00;;;;;;5044925;28;20409;-73
2022/07/19 05:26:13;;;;;;;3.70;2.67;;;21.10;48.70;;;;;;5044301;28;20421;-74
2022/07/19 05:28:40;;;;;;;3.05;2.40;;;21.20;48.60;;;;;;5045163;28;20425;-73
2022/07/19 05:31:07;;;;;;;2.78;2.50;;;21.20;48.00;;;;;;5043919;28;20923;-72
2022/07/19 05:33:33;;;;;;;3.92;2.40;;;21.30;46.50;;;;;;5045287;28;20553;-74
2022/07/19 05:36:00;;;;;;;4.47;2.40;;;21.30;47.10;;;;;;5045060;28;20416;-73
2022/07/19 05:38:29;;;;;;;3.10;2.30;;;21.30;47.30;;;;;;5045443;28;20444;-72
2022/07/19 05:40:57;;;;;;;3.60;2.30;;;21.40;47.00;;;;;;5042631;28;20827;-74
2022/07/19 05:43:24;;;;;;;2.95;2.30;;;21.40;46.20;;;;;;5047140;28;20460;-74
2022/07/19 05:45:50;;;;;;;3.92;2.60;;;21.50;46.60;;;;;;5048730;28;20419;-73
2022/07/19 05:48:17;;;;;;;4.50;2.45;;;21.60;46.80;;;;;;5049126;28;20460;-73
2022/07/19 05:50:44;;;;;;;2.90;2.60;;;21.60;46.60;;;;;;5047826;28;20443;-73
2022/07/19 05:53:11;;;;;;;4.10;2.60;;;21.70;46.50;;;;;;5049207;28;20432;-73
2022/07/19 05:55:38;;;;;;;5.20;2.50;;;21.70;46.50;;;;;;5046808;28;20955;-73
2022/07/19 05:58:07;;;;;;;3.83;2.38;;;21.80;45.20;;;;;;5048774;28;20428;-73
2022/07/19 06:00:33;;;;;;;4.67;2.27;;;21.90;44.60;;;;;;5046712;28;20523;-74
2022/07/19 06:03:00;;;;;;;5.13;2.70;;;21.90;44.30;;;;;;5048014;28;20768;-73
2022/07/19 06:05:27;;;;;;;4.70;2.28;;;21.90;44.90;;;;;;5047735;28;20413;-73
2022/07/19 06:07:54;;;;;;;4.63;2.40;;;22.00;45.10;;;;;;5048366;28;21212;-74
2022/07/19 06:10:21;;;;;;;4.20;2.53;;;22.00;44.40;;;;;;5045585;28;20420;-73
2022/07/19 06:12:48;;;;;;;3.15;2.20;;;22.00;44.80;;;;;;5048241;28;20817;-74
2022/07/19 06:15:16;;;;;;;3.83;2.55;;;22.10;44.30;;;;;;5047450;28;20413;-72
2022/07/19 06:17:43;;;;;;;5.90;2.55;;;22.20;44.70;;;;;;5048172;28;20524;-73
2022/07/19 06:20:11;;;;;;;3.50;2.30;;;22.30;44.20;;;;;;5046411;28;20417;-74
2022/07/19 06:22:38;;;;;;;3.97;2.30;;;22.40;44.30;;;;;;5047949;28;20421;-73
2022/07/19 06:25:06;;;;;;;3.10;2.30;;;22.40;43.60;;;;;;5046041;28;20425;-74
2022/07/19 06:27:33;;;;;;;4.53;2.50;;;22.50;43.40;;;;;;5048162;28;20417;-73
2022/07/19 06:30:00;;;;;;;3.40;2.50;;;22.60;43.60;;;;;;5046092;28;20513;-73
2022/07/19 06:32:29;;;;;;;2.97;2.42;;;22.60;42.80;;;;;;5047925;28;20425;-73
2022/07/19 06:34:55;;;;;;;3.20;2.00;;;22.70;43.00;;;;;;5047222;28;20471;-73
2022/07/19 06:37:22;;;;;;;3.72;2.63;;;22.80;43.10;;;;;;5047733;28;20424;-73
2022/07/19 06:39:49;;;;;;;4.88;2.65;;;22.90;42.60;;;;;;5046570;28;20439;-73
2022/07/19 06:42:16;;;;;;;4.15;2.80;;;22.90;42.60;;;;;;5047133;28;20459;-73
2022/07/19 06:44:43;;;;;;;3.65;2.47;;;23.00;42.40;;;;;;5047561;28;20449;-72
2022/07/19 06:47:09;;;;;;;3.20;2.20;;;23.10;42.60;;;;;;5047759;28;20492;-73
2022/07/19 06:49:38;;;;;;;3.58;2.20;;;23.20;42.40;;;;;;5047565;28;20448;-73
2022/07/19 06:52:04;;;;;;;4.30;2.47;;;23.30;42.30;;;;;;5046400;28;20484;-73
2022/07/19 06:54:31;;;;;;;4.83;2.53;;;23.40;42.00;;;;;;5046709;28;20437;-73
2022/07/19 06:56:58;;;;;;;3.47;2.78;;;23.50;41.70;;;;;;5046357;28;20899;-73
2022/07/19 06:59:25;;;;;;;4.50;2.55;;;23.70;41.30;;;;;;5047229;28;20504;-73
2022/07/19 07:01:52;;;;;;;7.50;2.60;;;23.80;40.60;;;;;;5046006;28;20504;-73
2022/07/19 07:04:19;;;;;;;7.30;2.53;;;23.90;41.60;;;;;;5047205;28;20869;-73
2022/07/19 07:06:47;;;;;;;5.97;2.20;;;24.00;40.80;;;;;;5059694;22;20457;-70
2022/07/19 07:09:14;;;;;;;7.20;2.40;;;24.10;40.30;;;;;;5050978;28;20532;-71
2022/07/19 07:11:42;;;;;;;2.88;2.40;;;24.30;40.00;;;;;;5050212;28;20436;-71
2022/07/19 07:14:09;;;;;;;5.65;2.42;;;24.40;39.40;;;;;;5052894;28;20889;-71
2022/07/19 07:16:35;;;;;;;4.20;2.28;;;24.50;39.50;;;;;;5051856;28;21309;-73
2022/07/19 07:19:02;;;;;;;7.55;2.50;;;24.70;38.90;;;;;;5050803;28;20506;-70
2022/07/19 07:21:30;;;;;;;4.53;2.30;;;24.80;38.90;;;;;;5035640;28;20486;-70
2022/07/19 07:23:58;;;;;;;3.50;2.30;;;25.00;38.50;;;;;;5029983;28;20466;-71
2022/07/19 07:26:25;;;;;;;4.00;2.20;;;25.20;38.40;;;;;;5029616;28;20437;-71
2022/07/19 07:28:52;;;;;;;3.88;2.30;;;25.30;38.10;;;;;;5031446;28;20435;-71
2022/07/19 07:31:19;;;;;;;7.33;2.43;;;25.50;37.90;;;;;;5029988;28;20479;-71
2022/07/19 07:33:45;;;;;;;4.10;2.40;;;25.80;37.60;;;;;;5033963;28;20852;-71
2022/07/19 07:36:12;;;;;;;3.45;2.28;;;25.90;37.10;;;;;;5032236;28;20943;-71
2022/07/19 07:38:39;;;;;;;4.40;2.20;;;26.20;36.30;;;;;;5035362;28;20413;-70
2022/07/19 07:41:08;;;;;;;4.68;2.50;;;26.30;36.30;;;;;;5029975;28;20500;-71
2022/07/19 07:43:36;;;;;;;2.92;2.35;;;26.60;36.10;;;;;;5032475;28;20499;-71
2022/07/19 07:46:03;;;;;;;3.28;2.20;;;26.80;35.70;;;;;;5033174;28;20449;-73
2022/07/19 07:48:30;;;;;;;6.68;2.35;;;27.00;35.10;;;;;;5030475;28;20502;-71
2022/07/19 07:50:57;;;;;;;4.70;2.30;;;27.20;34.10;;;;;;5027357;28;20419;-71
2022/07/19 07:53:24;;;;;;;3.28;2.00;;;27.50;34.50;;;;;;5029489;28;20461;-70
2022/07/19 07:55:50;;;;;;;4.30;2.20;;;27.60;32.60;;;;;;5027604;28;20506;-73
2022/07/19 07:58:19;;;;;;;3.10;2.00;;;27.80;32.60;;;;;;5029654;28;20523;-70
2022/07/19 08:00:45;;;;;;;3.80;2.03;;;28.00;31.50;;;;;;5027649;28;20923;-71
2022/07/19 08:03:12;;;;;;;3.70;2.30;;;28.10;31.70;;;;;;5029938;28;20429;-71
2022/07/19 08:05:39;;;;;;;3.60;2.10;;;28.30;31.70;;;;;;5027909;28;20490;-70
2022/07/19 08:08:06;;;;;;;4.60;2.00;;;28.60;31.30;;;;;;5028630;28;20724;-70
2022/07/19 08:10:35;;;;;;;4.10;2.50;;;28.80;30.90;;;;;;5026183;28;20603;-70
2022/07/19 08:13:02;;;;;;;5.00;2.45;;;29.00;30.00;;;;;;5028976;28;20525;-72
2022/07/19 08:15:30;;;;;;;4.03;2.20;;;29.20;30.00;;;;;;5028571;28;21226;-71
2022/07/19 08:17:57;;;;;;;2.85;2.10;;;29.40;29.90;;;;;;5028782;28;20425;-73
2022/07/19 08:20:24;;;;;;;3.28;1.90;;;29.70;29.30;;;;;;5026489;28;20429;-71
2022/07/19 08:22:51;;;;;;;3.13;2.22;;;29.80;29.30;;;;;;5030791;28;20474;-72
2022/07/19 08:25:18;;;;;;;2.05;1.90;;;30.00;28.70;;;;;;5028327;28;20489;-70
2022/07/19 08:27:45;;;;;;;5.18;2.30;;;30.00;28.90;;;;;;5029985;28;20518;-69
2022/07/19 08:30:13;;;;;;;5.15;2.10;;;30.10;29.00;;;;;;5028561;28;20970;-69
2022/07/19 08:32:42;;;;;;;4.00;2.10;;;30.20;28.80;;;;;;5036575;28;20860;-72
2022/07/19 08:35:10;;;;;;;3.55;1.80;;;30.50;28.40;;;;;;5045715;28;20415;-70
2022/07/19 08:37:37;;;;;;;2.92;2.00;;;30.70;27.70;;;;;;5044616;28;20491;-71
2022/07/19 08:40:06;;;;;;;3.55;1.83;;;31.00;27.80;;;;;;5042212;28;20494;-70
2022/07/19 08:42:33;;;;;;;4.53;2.10;;;31.10;27.70;;;;;;5043467;28;20430;-69
2022/07/19 08:45:03;;;;;;;3.53;2.10;;;31.30;27.70;;;;;;5030149;28;20454;-70
2022/07/19 08:47:31;;;;;;;4.03;2.15;;;31.50;27.20;;;;;;5030486;28;20466;-72
2022/07/19 08:50:00;;;;;;;3.58;1.95;;;31.60;27.20;;;;;;5028035;28;20447;-72
2022/07/19 08:52:28;;;;;;;4.90;2.00;;;31.80;27.00;;;;;;5029131;28;20423;-71
2022/07/19 08:54:56;;;;;;;4.53;2.03;;;32.00;27.30;;;;;;5027535;28;20529;-71
2022/07/19 09:00:08;;;;;;;3.67;1.80;;;32.40;27.00;;;;;;5027885;28;20410;-71
2022/07/19 09:02:35;;;;;;;3.47;2.28;;;32.60;26.70;;;;;;5029590;28;20427;-71
2022/07/19 09:05:07;;;;;;;3.37;1.70;;;33.00;26.20;;;;;;5027654;28;20919;-72
2022/07/19 09:07:35;;;;;;;2.90;1.70;;;33.40;25.40;;;;;;5028757;28;20430;-72
2022/07/19 09:10:18;;;;;;;3.45;1.65;;;33.60;25.20;;;;;;5026174;28;20431;-70
2022/07/19 09:13:04;;;;;;;2.42;1.60;;;33.60;25.10;;;;;;5029178;28;20513;-70
2022/07/19 09:15:43;;;;;;;2.38;1.80;;;33.90;24.70;;;;;;5028012;28;20466;-71
2022/07/19 09:18:11;;;;;;;3.80;1.60;;;34.00;24.30;;;;;;5030423;28;20551;-72
2022/07/19 09:20:40;;;;;;;3.75;1.70;;;34.10;23.90;;;;;;5030657;28;20417;-70
2022/07/19 09:23:07;;;;;;;3.10;1.80;;;34.00;23.80;;;;;;5032243;28;20585;-70
2022/07/19 09:25:36;;;;;;;2.30;1.70;;;34.10;24.20;;;;;;5030237;28;20516;-71
2022/07/19 09:28:03;;;;;;;4.75;1.80;;;34.30;24.10;;;;;;5032017;28;20418;-73
2022/07/19 09:30:39;;;;;;;3.00;1.50;;;34.40;23.90;;;;;;5030624;28;20423;-71
2022/07/19 09:33:11;;;;;;;3.80;1.60;;;34.50;23.60;;;;;;5032921;28;20470;-72
2022/07/19 09:35:42;;;;;;;1.90;1.50;;;34.60;23.90;;;;;;5042998;28;20419;-71
2022/07/19 09:38:24;;;;;;;5.10;1.70;;;34.70;23.50;;;;;;5044059;28;20494;-72
2022/07/19 09:40:54;;;;;;;4.88;1.75;;;35.00;22.90;;;;;;5030847;28;20415;-73
2022/07/19 09:43:22;;;;;;;3.13;1.58;;;35.10;22.90;;;;;;5031800;28;20930;-72
2022/07/19 09:45:50;;;;;;;1.98;1.67;;;35.10;23.00;;;;;;5033145;28;20461;-72
2022/07/19 09:48:17;;;;;;;3.85;1.60;;;35.20;22.90;;;;;;5033668;28;20413;-71
2022/07/19 09:50:48;;;;;;;4.07;1.70;;;35.40;22.70;;;;;;5030213;28;20430;-72
2022/07/19 09:53:17;;;;;;;3.63;1.70;;;35.60;22.10;;;;;;5031899;28;20411;-72
2022/07/19 09:55:45;;;;;;;2.13;1.70;;;35.70;21.80;;;;;;5030895;28;20426;-72
2022/07/19 09:58:12;;;;;;;3.10;1.73;;;35.80;21.90;;;;;;5033265;28;20431;-72
2022/07/19 10:00:40;;;;;;;2.65;1.48;;;35.90;21.30;;;;;;5031457;28;20407;-73
2022/07/19 10:03:10;;;;;;;2.72;1.50;;;35.90;20.80;;;;;;5044437;28;20410;-72
2022/07/19 10:05:37;;;;;;;2.50;1.45;;;36.00;20.90;;;;;;5051311;28;20514;-72
2022/07/19 10:08:07;;;;;;;4.78;1.77;;;36.40;20.40;;;;;;5047336;28;20499;-72
2022/07/19 10:10:34;;;;;;;3.95;1.50;;;36.60;21.10;;;;;;5037306;28;20539;-72
2022/07/19 10:13:03;;;;;;;2.60;1.30;;;36.80;19.00;;;;;;5037676;28;20407;-71
2022/07/19 10:15:35;;;;;;;2.88;1.20;;;36.60;18.30;;;;;;5030850;28;20422;-72
2022/07/19 10:18:10;;;;;;;2.13;1.20;;;36.40;18.40;;;;;;5030934;28;20887;-72
2022/07/19 10:20:38;;;;;;;2.20;1.40;;;36.50;18.60;;;;;;5029424;28;20423;-72
2022/07/19 10:23:07;;;;;;;1.98;1.30;;;36.60;18.10;;;;;;5031013;28;20502;-73
2022/07/19 10:25:43;;;;;;;3.08;1.60;;;36.70;18.30;;;;;;5029467;28;20429;-72
2022/07/19 10:28:29;;;;;;;3.80;1.80;;;36.80;18.00;;;;;;5031102;28;20450;-71
2022/07/19 10:30:56;;;;;;;2.70;1.27;;;37.00;17.90;;;;;;5028932;28;20431;-73
2022/07/19 10:33:30;;;;;;;2.58;1.48;;;37.00;18.60;;;;;;5031276;28;20414;-71
2022/07/19 10:35:57;;;;;;;2.47;1.57;;;37.10;17.60;;;;;;5029963;28;20423;-72
2022/07/19 10:38:25;;;;;;;2.67;1.30;;;37.10;17.60;;;;;;5030917;28;20411;-72
2022/07/19 10:40:56;;;;;;;3.65;1.50;;;37.10;17.90;;;;;;5027575;28;20407;-72
2022/07/19 10:43:24;;;;;;;2.65;1.40;;;37.20;18.00;;;;;;5030894;28;20421;-73
2022/07/19 10:46:11;;;;;;;1.80;1.30;;;37.50;17.90;;;;;;5029978;28;20446;-71
2022/07/19 10:48:39;;;;;;;2.65;1.40;;;37.50;18.00;;;;;;5030263;28;21103;-73
2022/07/19 10:51:07;;;;;;;2.30;1.40;;;37.40;17.80;;;;;;5028768;28;20455;-72
2022/07/19 10:54:10;;;;;;;2.70;1.38;;;37.60;17.60;;;;;;5030414;28;20431;-71
2022/07/19 10:56:40;;;;;;;3.42;1.40;;;37.60;17.60;;;;;;5028932;28;20523;-71
2022/07/19 10:59:09;;;;;;;1.70;1.25;;;37.50;18.10;;;;;;5030411;28;20418;-73
2022/07/19 11:01:37;;;;;;;1.80;1.60;;;37.70;18.30;;;;;;5029350;28;20892;-75
2022/07/19 11:04:31;;;;;;;2.40;1.40;;;38.00;18.20;;;;;;5030061;28;20419;-75
2022/07/19 11:07:15;;;;;;;2.40;1.50;;;38.10;17.70;;;;;;5029968;28;20566;-75
2022/07/19 11:09:49;;;;;;;3.35;1.50;;;38.40;17.70;;;;;;5029158;28;20871;-72
2022/07/19 11:12:34;;;;;;;1.80;1.30;;;38.70;17.80;;;;;;5029235;28;20423;-75
2022/07/19 11:15:04;;;;;;;2.20;1.40;;;38.90;17.80;;;;;;5029317;28;20493;-74
2022/07/19 11:17:32;;;;;;;1.67;1.10;;;39.00;17.70;;;;;;5030450;28;20710;-73
2022/07/19 11:20:01;;;;;;;2.30;1.15;;;39.20;17.50;;;;;;5028819;28;20458;-71
2022/07/19 11:22:33;;;;;;;3.13;1.50;;;39.60;16.90;;;;;;5029125;28;20418;-73
2022/07/19 11:25:02;;;;;;;2.70;1.40;;;39.60;17.10;;;;;;5027593;28;20421;-73
2022/07/19 11:27:30;;;;;;;2.90;1.60;;;39.60;17.50;;;;;;5029664;28;20909;-75
2022/07/19 11:30:00;;;;;;;2.55;1.15;;;39.40;16.40;;;;;;5028501;28;20477;-73
2022/07/19 11:32:26;;;;;;;2.58;1.40;;;39.20;16.40;;;;;;5029463;28;20437;-75
2022/07/19 11:34:55;;;;;;;2.88;1.30;;;38.90;16.40;;;;;;5029273;28;20447;-73
2022/07/19 11:37:24;;;;;;;2.60;1.67;;;38.80;16.50;;;;;;5029542;28;20526;-72
2022/07/19 11:39:51;;;;;;;2.30;1.60;;;39.20;16.50;;;;;;5026830;28;20515;-75
2022/07/19 11:42:30;;;;;;;2.33;1.37;;;39.30;16.50;;;;;;5028627;28;20417;-75
2022/07/19 11:44:57;;;;;;;1.70;1.20;;;39.00;16.60;;;;;;5029218;28;20427;-72
2022/07/19 11:47:24;;;;;;;2.00;1.20;;;39.00;16.20;;;;;;5030380;28;20415;-71
2022/07/19 11:49:51;;;;;;;1.85;1.20;;;38.90;16.10;;;;;;5030132;28;20419;-73
2022/07/19 11:52:17;;;;;;;3.50;1.80;;;38.90;16.40;;;;;;5031241;28;20510;-72
2022/07/19 11:54:59;;;;;;;1.88;1.50;;;38.90;16.10;;;;;;5029505;28;20970;-71
2022/07/19 11:57:26;;;;;;;1.60;1.50;;;38.90;15.80;;;;;;5030862;28;20426;-71
2022/07/19 11:59:54;;;;;;;1.40;1.30;;;38.80;15.80;;;;;;5028722;28;20415;-72
2022/07/19 12:02:21;;;;;;;2.88;1.52;;;38.60;15.50;;;;;;5029686;28;20835;-74
2022/07/19 12:04:48;;;;;;;2.10;1.50;;;38.70;16.10;;;;;;5028307;28;20970;-72
2022/07/19 12:07:18;;;;;;;1.58;1.48;;;38.60;15.90;;;;;;5029557;28;20445;-74
2022/07/19 12:09:45;;;;;;;2.10;1.50;;;38.70;15.80;;;;;;5027706;28;20419;-72
2022/07/19 12:12:16;;;;;;;1.80;1.60;;;38.90;15.30;;;;;;5027816;28;20431;-74
2022/07/19 12:14:44;;;;;;;1.95;1.55;;;38.90;15.40;;;;;;5028511;28;20447;-75
2022/07/19 12:17:14;;;;;;;1.90;1.70;;;39.10;15.80;;;;;;5030076;28;20434;-72
2022/07/19 12:19:44;;;;;;;2.30;1.40;;;39.00;15.80;;;;;;5029058;28;20427;-73
2022/07/19 12:22:29;;;;;;;3.40;1.30;;;39.00;15.80;;;;;;5027791;28;20932;-72
2022/07/19 12:24:57;;;;;;;2.33;1.40;;;38.70;15.70;;;;;;5026933;28;20425;-74
2022/07/19 12:27:27;;;;;;;2.03;1.45;;;38.50;16.20;;;;;;5029956;28;20445;-74
2022/07/19 12:29:55;;;;;;;1.45;1.20;;;38.70;16.00;;;;;;5031114;28;20429;-72
2022/07/19 12:32:30;;;;;;;1.70;1.40;;;39.00;16.00;;;;;;5039024;28;20410;-72
2022/07/19 12:34:59;;;;;;;1.90;1.30;;;39.30;16.20;;;;;;5044094;28;20407;-73
2022/07/19 12:37:27;;;;;;;2.30;1.63;;;39.70;15.80;;;;;;5045379;28;20438;-72
2022/07/19 12:40:06;;;;;;;1.40;1.20;;;39.80;15.90;;;;;;5038696;28;20415;-73
2022/07/19 12:42:41;;;;;;;1.45;1.35;;;39.80;15.80;;;;;;5044615;28;20859;-72
2022/07/19 12:45:10;;;;;;;2.50;1.30;;;40.00;16.20;;;;;;5038460;28;20516;-72
2022/07/19 12:47:39;;;;;;;2.40;1.20;;;40.00;15.90;;;;;;5036937;28;20470;-71
2022/07/19 12:50:07;;;;;;;2.00;1.40;;;39.90;15.80;;;;;;5034955;28;21329;-74
2022/07/19 12:52:34;;;;;;;2.00;1.50;;;40.10;16.20;;;;;;5031697;28;20433;-74
2022/07/19 12:55:01;;;;;;;2.00;1.40;;;40.10;16.10;;;;;;5033058;28;20434;-72
2022/07/19 12:57:29;;;;;;;2.13;1.30;;;40.10;16.10;;;;;;5034772;28;20513;-73